createdAt,value
2023-02-22T00:00:43.095Z,101121.16
2023-02-22T00:03:15.972Z,101118.63
2023-02-22T00:05:47.603Z,101111.91
2023-02-22T00:08:19.455Z,101108.25
2023-02-22T00:10:53.980Z,101104.84
2023-02-22T00:13:25.483Z,101103.13
2023-02-22T00:15:57.005Z,101101.63
2023-02-22T00:18:28.883Z,101102.22
2023-02-22T00:21:00.417Z,101103.47
2023-02-22T00:23:32.331Z,101099.56
2023-02-22T00:26:03.850Z,101101.97
2023-02-22T00:28:35.928Z,101101.59
2023-02-22T00:31:07.431Z,101096.59
2023-02-22T00:33:39.125Z,101099.44
2023-02-22T00:36:10.910Z,101096.06
2023-02-22T00:38:42.930Z,101098.28
2023-02-22T00:41:14.868Z,101101.03
2023-02-22T00:43:47.015Z,101101.38
2023-02-22T00:46:18.549Z,101102.41
2023-02-22T00:48:50.069Z,101100.31
2023-02-22T00:51:21.681Z,101102.97
2023-02-22T00:53:53.540Z,101103.16
2023-02-22T00:56:25.077Z,101105.38
2023-02-22T00:58:56.985Z,101101.00
2023-02-22T01:01:28.567Z,101098.09
2023-02-22T01:04:00.379Z,101103.53
2023-02-22T01:06:31.984Z,101106.00
2023-02-22T01:09:03.761Z,101099.88
2023-02-22T01:11:35.256Z,100968.66
2023-02-22T01:14:09.958Z,101099.50
2023-02-22T01:16:41.539Z,101095.84
2023-02-22T01:19:13.104Z,101093.13
2023-02-22T01:21:44.639Z,101093.31
2023-02-22T01:24:16.742Z,101096.16
2023-02-22T01:26:48.253Z,101088.00
2023-02-22T01:29:21.451Z,101083.59
2023-02-22T01:31:54.501Z,101097.22
2023-02-22T01:34:26.193Z,101098.94
2023-02-22T01:36:58.495Z,101086.00
2023-02-22T01:39:30.023Z,101099.63
2023-02-22T01:42:01.765Z,101085.50
2023-02-22T01:44:33.522Z,101088.25
2023-02-22T01:47:05.032Z,101090.91
2023-02-22T01:49:36.968Z,101079.28
2023-02-22T01:52:08.846Z,101076.56
2023-02-22T01:54:40.708Z,101082.13
2023-02-22T01:57:12.218Z,101081.06
2023-02-22T01:59:44.007Z,101082.13
2023-02-22T02:02:15.566Z,101082.50
2023-02-22T02:04:47.095Z,101081.53
2023-02-22T02:07:18.646Z,101079.50
2023-02-22T02:09:50.486Z,101072.84
2023-02-22T02:12:23.334Z,101071.38
2023-02-22T02:14:55.253Z,101070.00
2023-02-22T02:17:26.746Z,101074.03
2023-02-22T02:19:59.596Z,101077.03
2023-02-22T02:22:31.110Z,101074.78
2023-02-22T02:25:05.377Z,101073.13
2023-02-22T02:27:36.933Z,101072.84
2023-02-22T02:30:08.849Z,101073.56
2023-02-22T02:32:40.483Z,101073.13
2023-02-22T02:35:12.121Z,101070.66
2023-02-22T02:37:43.613Z,101064.53
2023-02-22T02:40:18.137Z,101062.06
2023-02-22T02:42:49.633Z,101062.44
2023-02-22T02:45:21.510Z,101064.00
2023-02-22T02:47:53.454Z,101061.91
2023-02-22T02:50:24.992Z,101063.06
2023-02-22T02:52:56.544Z,101065.53
2023-02-22T02:55:28.065Z,101067.56
2023-02-22T02:58:00.305Z,101062.44
2023-02-22T03:00:32.139Z,101071.19
2023-02-22T03:03:03.653Z,101065.09
2023-02-22T03:05:35.591Z,101063.25
2023-02-22T03:08:07.798Z,101057.16
2023-02-22T03:10:39.827Z,101062.53
2023-02-22T03:13:11.734Z,101066.81
2023-02-22T03:15:43.588Z,101065.81
2023-02-22T03:18:17.685Z,101061.53
2023-02-22T03:20:49.222Z,101053.94
2023-02-22T03:23:20.726Z,101055.22
2023-02-22T03:25:52.583Z,101050.56
2023-02-22T03:28:26.296Z,101052.22
2023-02-22T03:30:57.826Z,101057.13
2023-02-22T03:33:33.830Z,101054.31
2023-02-22T03:36:05.330Z,101051.38
2023-02-22T03:38:37.461Z,101056.97
2023-02-22T03:41:09.012Z,101056.13
2023-02-22T03:43:40.778Z,101061.06
2023-02-22T03:46:12.311Z,101053.13
2023-02-22T03:48:47.023Z,101059.41
2023-02-22T03:51:18.829Z,101053.13
2023-02-22T03:53:50.715Z,101056.13
2023-02-22T03:56:22.231Z,101052.31
2023-02-22T03:58:54.052Z,101057.41
2023-02-22T04:01:25.619Z,101050.28
2023-02-22T04:03:57.475Z,101057.22
2023-02-22T04:06:29.030Z,101050.66
2023-02-22T04:09:00.871Z,101047.81
2023-02-22T04:11:32.433Z,101050.41
2023-02-22T04:14:04.402Z,101055.41
2023-02-22T04:16:35.918Z,101051.75
2023-02-22T04:19:07.835Z,101053.94
2023-02-22T04:21:39.387Z,101053.03
2023-02-22T04:24:12.004Z,101062.81
2023-02-22T04:26:43.575Z,101055.16
2023-02-22T04:29:15.216Z,101048.38
2023-02-22T04:31:46.723Z,101060.06
2023-02-22T04:34:18.546Z,101056.22
2023-02-22T04:36:50.023Z,101054.41
2023-02-22T04:39:21.778Z,101054.69
2023-02-22T04:41:53.472Z,101056.34
2023-02-22T04:44:24.974Z,101056.16
2023-02-22T04:46:57.500Z,101042.09
2023-02-22T04:49:29.088Z,101045.38
2023-02-22T04:52:00.601Z,101045.63
2023-02-22T04:54:32.157Z,101050.94
2023-02-22T04:57:03.702Z,101049.38
2023-02-22T04:59:35.369Z,101051.91
2023-02-22T05:02:06.925Z,101047.44
2023-02-22T05:04:38.717Z,101048.19
2023-02-22T05:07:10.268Z,101052.28
2023-02-22T05:09:42.138Z,101046.34
2023-02-22T05:12:13.687Z,101051.84
2023-02-22T05:14:45.183Z,101044.91
2023-02-22T05:17:16.720Z,101038.41
2023-02-22T05:19:48.549Z,101041.88
2023-02-22T05:22:20.029Z,101034.81
2023-02-22T05:24:54.928Z,101033.19
2023-02-22T05:27:26.422Z,101040.50
2023-02-22T05:29:58.210Z,101036.66
2023-02-22T05:32:29.699Z,101040.31
2023-02-22T05:35:01.527Z,101043.59
2023-02-22T05:37:33.080Z,101042.78
2023-02-22T05:40:04.835Z,101035.63
2023-02-22T05:42:36.324Z,101040.56
2023-02-22T05:45:08.110Z,101041.56
2023-02-22T05:47:39.595Z,101047.06
2023-02-22T05:50:11.424Z,101040.13
2023-02-22T05:52:42.907Z,101045.31
2023-02-22T05:55:14.741Z,101048.88
2023-02-22T05:57:46.250Z,101049.31
2023-02-22T06:00:18.064Z,101047.69
2023-02-22T06:02:49.536Z,101046.88
2023-02-22T06:05:21.386Z,101054.44
2023-02-22T06:07:53.776Z,101062.84
2023-02-22T06:10:25.364Z,101065.09
2023-02-22T06:12:56.850Z,101060.81
2023-02-22T06:15:28.374Z,101063.03
2023-02-22T06:18:00.146Z,101065.28
2023-02-22T06:20:33.628Z,101066.94
2023-02-22T06:23:05.115Z,101067.81
2023-02-22T06:25:37.026Z,101060.31
2023-02-22T06:28:08.571Z,101065.19
2023-02-22T06:30:41.190Z,101070.28
2023-02-22T06:33:12.685Z,101071.09
2023-02-22T06:35:45.174Z,101069.47
2023-02-22T06:38:16.643Z,101072.38
2023-02-22T06:40:48.416Z,101071.00
2023-02-22T06:43:19.989Z,101074.13
2023-02-22T06:45:51.912Z,101083.16
2023-02-22T06:48:23.403Z,101082.13
2023-02-22T06:50:54.887Z,101077.47
2023-02-22T06:53:26.387Z,101080.25
2023-02-22T06:55:58.239Z,101091.09
2023-02-22T06:58:29.720Z,101090.03
2023-02-22T07:01:03.822Z,101090.19
2023-02-22T07:03:35.824Z,101092.56
2023-02-22T07:06:07.616Z,101087.56
2023-02-22T07:08:39.120Z,101098.88
2023-02-22T07:11:10.624Z,101100.13
2023-02-22T07:13:42.081Z,101098.56
2023-02-22T07:16:14.105Z,101099.44
2023-02-22T07:18:45.624Z,101094.53
2023-02-22T07:21:19.386Z,101096.28
2023-02-22T07:23:50.964Z,101098.34
2023-02-22T07:26:22.773Z,101104.47
2023-02-22T07:28:54.266Z,101100.00
2023-02-22T07:31:26.400Z,101095.50
2023-02-22T07:33:58.778Z,101102.31
2023-02-22T07:36:30.283Z,101102.50
2023-02-22T07:39:01.758Z,101108.53
2023-02-22T07:41:33.627Z,101098.13
2023-02-22T07:44:05.146Z,101100.03
2023-02-22T07:46:36.851Z,101095.81
2023-02-22T07:49:08.400Z,101094.84
2023-02-22T07:51:40.230Z,101096.66
2023-02-22T07:54:11.718Z,101103.56
2023-02-22T07:56:43.506Z,101100.16
2023-02-22T07:59:15.042Z,101097.06
2023-02-22T08:01:46.882Z,101101.41
2023-02-22T08:04:18.343Z,101100.97
2023-02-22T08:06:50.614Z,101107.75
2023-02-22T08:09:23.600Z,101110.69
2023-02-22T08:11:55.402Z,101059.66
2023-02-22T08:14:26.893Z,101102.56
2023-02-22T08:16:58.679Z,101108.56
2023-02-22T08:19:30.189Z,101107.09
2023-02-22T08:22:02.000Z,101111.31
2023-02-22T08:24:33.475Z,101114.19
2023-02-22T08:27:05.311Z,101108.06
2023-02-22T08:29:36.819Z,101111.19
2023-02-22T08:32:08.801Z,101106.56
2023-02-22T08:34:40.372Z,101106.00
2023-02-22T08:37:12.300Z,101106.00
2023-02-22T08:39:43.794Z,101112.75
2023-02-22T08:42:15.628Z,101110.28
2023-02-22T08:44:48.547Z,101104.75
2023-02-22T08:47:20.413Z,101103.63
2023-02-22T08:49:51.951Z,101104.59
2023-02-22T08:52:23.460Z,101107.69
2023-02-22T08:54:55.681Z,101099.88
2023-02-22T08:57:27.171Z,101111.16
2023-02-22T08:59:58.679Z,101098.56
2023-02-22T09:02:30.182Z,101110.41
2023-02-22T09:05:01.677Z,101107.19
2023-02-22T09:07:33.164Z,101112.94
2023-02-22T09:10:04.653Z,101110.69
2023-02-22T09:12:36.394Z,101106.81
2023-02-22T09:15:07.871Z,101101.25
2023-02-22T09:17:39.605Z,101103.28
2023-02-22T09:20:12.346Z,101103.25
2023-02-22T09:22:43.880Z,101102.06
2023-02-22T09:25:17.278Z,101097.97
2023-02-22T09:27:49.056Z,101104.81
2023-02-22T09:30:20.876Z,101098.66
2023-02-22T09:32:52.637Z,101101.94
2023-02-22T09:35:27.707Z,101099.31
2023-02-22T09:37:59.245Z,101099.09
2023-02-22T09:40:30.775Z,101096.22
2023-02-22T09:43:02.368Z,101096.84
2023-02-22T09:45:36.976Z,101097.66
2023-02-22T09:48:21.167Z,101094.78
2023-02-22T09:50:53.594Z,101092.31
2023-02-22T09:53:31.265Z,101088.19
2023-02-22T09:56:03.713Z,101091.00
2023-02-22T09:58:35.276Z,101090.53
2023-02-22T10:01:07.304Z,101083.06
2023-02-22T10:03:38.810Z,101080.41
2023-02-22T10:06:10.497Z,101083.22
2023-02-22T10:08:42.005Z,101083.97
2023-02-22T10:11:16.334Z,101079.63
2023-02-22T10:13:48.724Z,101079.25
2023-02-22T10:16:21.100Z,101079.31
2023-02-22T10:18:55.119Z,101074.16
2023-02-22T10:21:26.694Z,101077.41
2023-02-22T10:23:58.194Z,101079.13
2023-02-22T10:26:29.759Z,101075.84
2023-02-22T10:29:01.268Z,101071.22
2023-02-22T10:31:35.966Z,101063.44
2023-02-22T10:34:07.474Z,101067.53
2023-02-22T10:36:39.566Z,101063.94
2023-02-22T10:39:11.076Z,101068.91
2023-02-22T10:41:42.921Z,101071.00
2023-02-22T10:44:15.350Z,101076.22
2023-02-22T10:46:47.044Z,101070.41
2023-02-22T10:49:18.562Z,101065.50
2023-02-22T10:51:50.066Z,101066.00
2023-02-22T10:54:21.556Z,101065.59
2023-02-22T10:56:54.181Z,101054.09
2023-02-22T10:59:27.014Z,101065.13
2023-02-22T11:01:59.077Z,101060.66
2023-02-22T11:04:30.617Z,101061.13
2023-02-22T11:07:04.671Z,101063.00
2023-02-22T11:09:36.154Z,101061.13
2023-02-22T11:12:07.875Z,101061.97
2023-02-22T11:14:39.389Z,101058.44
2023-02-22T11:17:13.206Z,101057.41
2023-02-22T11:19:44.707Z,101060.63
2023-02-22T11:22:16.508Z,101054.94
2023-02-22T11:24:50.555Z,101047.78
2023-02-22T11:27:22.293Z,101057.44
2023-02-22T11:29:53.836Z,101052.88
2023-02-22T11:32:25.582Z,101047.63
2023-02-22T11:35:08.659Z,101053.16
2023-02-22T11:37:40.672Z,101049.47
2023-02-22T11:40:12.214Z,101044.56
2023-02-22T11:42:44.042Z,101036.63
2023-02-22T11:45:15.670Z,101031.84
2023-02-22T11:47:47.561Z,101025.16
2023-02-22T11:50:19.047Z,101028.72
2023-02-22T11:52:50.915Z,101027.63
2023-02-22T11:55:36.499Z,101024.00
2023-02-22T11:58:13.867Z,101021.31
2023-02-22T12:00:45.400Z,101020.09
2023-02-22T12:03:16.918Z,101014.31
2023-02-22T12:05:59.848Z,101008.97
2023-02-22T12:08:31.473Z,101012.19
2023-02-22T12:11:03.785Z,101006.03
2023-02-22T12:13:36.712Z,101006.53
2023-02-22T12:16:08.538Z,101002.25
2023-02-22T12:18:40.139Z,101006.09
2023-02-22T12:21:12.059Z,101001.75
2023-02-22T12:23:44.880Z,100999.34
2023-02-22T12:26:17.310Z,100996.06
2023-02-22T12:28:48.991Z,101002.78
2023-02-22T12:31:20.999Z,101000.88
2023-02-22T12:33:52.551Z,101000.06
2023-02-22T12:36:24.096Z,100998.66
2023-02-22T12:38:55.721Z,100998.88
2023-02-22T12:41:27.266Z,101001.84
2023-02-22T12:43:58.830Z,100995.66
2023-02-22T12:46:30.564Z,100998.56
2023-02-22T12:49:02.330Z,101000.44
2023-02-22T12:51:34.282Z,100996.84
2023-02-22T12:54:05.980Z,101006.47
2023-02-22T12:56:37.760Z,100997.97
2023-02-22T12:59:09.317Z,100997.88
2023-02-22T13:01:41.081Z,100996.66
2023-02-22T13:04:20.600Z,100997.59
2023-02-22T13:06:53.842Z,100999.31
2023-02-22T13:09:26.695Z,100995.53
2023-02-22T13:11:58.500Z,100987.50
2023-02-22T13:14:30.119Z,100988.00
2023-02-22T13:17:01.660Z,100980.19
2023-02-22T13:19:33.146Z,100986.06
2023-02-22T13:22:05.042Z,100980.78
2023-02-22T13:24:38.403Z,100981.81
2023-02-22T13:27:10.833Z,100981.84
2023-02-22T13:29:42.353Z,100983.28
2023-02-22T13:32:14.180Z,100972.50
2023-02-22T13:34:45.707Z,100976.88
2023-02-22T13:37:17.776Z,100968.91
2023-02-22T13:39:54.566Z,100977.88
2023-02-22T13:42:26.177Z,100968.34
2023-02-22T13:44:59.633Z,100969.47
2023-02-22T13:47:31.196Z,100968.97
2023-02-22T13:50:02.751Z,100964.84
2023-02-22T13:52:34.583Z,100963.41
2023-02-22T13:55:10.820Z,100964.50
2023-02-22T13:57:48.775Z,100965.16
2023-02-22T14:00:23.489Z,100961.81
2023-02-22T14:02:55.128Z,100968.09
2023-02-22T14:05:28.936Z,100966.72
2023-02-22T14:08:02.095Z,100966.13
2023-02-22T14:10:33.633Z,100967.09
2023-02-22T14:13:05.232Z,100965.16
2023-02-22T14:15:36.713Z,100963.16
2023-02-22T14:18:08.230Z,100955.66
2023-02-22T14:20:40.378Z,100959.34
2023-02-22T14:23:12.529Z,100954.69
2023-02-22T14:25:44.119Z,100951.75
2023-02-22T14:28:15.970Z,100951.41
2023-02-22T14:30:47.460Z,100954.72
2023-02-22T14:33:18.962Z,100945.50
2023-02-22T14:35:50.530Z,100949.94
2023-02-22T14:38:22.373Z,100951.19
2023-02-22T14:40:53.889Z,100940.97
2023-02-22T14:43:25.469Z,100939.28
2023-02-22T14:45:57.116Z,100948.59
2023-02-22T14:48:28.726Z,100941.81
2023-02-22T14:51:05.866Z,100937.81
2023-02-22T14:53:44.533Z,100935.16
2023-02-22T14:56:16.056Z,100934.97
2023-02-22T14:58:48.268Z,100931.47
2023-02-22T15:01:20.527Z,100931.91
2023-02-22T15:04:07.319Z,100926.38
2023-02-22T15:06:39.718Z,100925.97
2023-02-22T15:09:11.589Z,100923.06
2023-02-22T15:11:45.549Z,100920.81
2023-02-22T15:14:25.712Z,100924.72
2023-02-22T15:16:57.691Z,100926.97
2023-02-22T15:19:29.232Z,100915.88
2023-02-22T15:22:00.725Z,100914.53
2023-02-22T15:24:32.653Z,100914.53
2023-02-22T15:27:06.008Z,100906.75
2023-02-22T15:35:42.608Z,100910.06
2023-02-22T15:38:14.617Z,100918.25
2023-02-22T15:40:50.581Z,100910.47
2023-02-22T15:43:25.197Z,100915.84
2023-02-22T15:45:56.805Z,100908.28
2023-02-22T15:48:28.533Z,100907.66
2023-02-22T15:51:00.120Z,100908.50
2023-02-22T15:53:31.747Z,100908.06
2023-02-22T15:56:03.252Z,100910.34
2023-02-22T15:58:34.971Z,100909.94
2023-02-22T16:01:06.681Z,100899.28
2023-02-22T16:03:44.827Z,100904.81
2023-02-22T16:06:17.682Z,100906.44
2023-02-22T16:08:55.103Z,100902.97
2023-02-22T16:11:30.081Z,100904.00
2023-02-22T16:14:01.835Z,100895.84
2023-02-22T16:16:33.410Z,100900.72
2023-02-22T16:19:05.051Z,100900.34
2023-02-22T16:21:36.585Z,100896.44
2023-02-22T16:24:15.302Z,100904.00
2023-02-22T16:26:47.254Z,100896.22
2023-02-22T16:29:19.172Z,100892.94
2023-02-22T16:31:50.912Z,100897.25
2023-02-22T16:34:22.595Z,100894.19
2023-02-22T16:36:55.583Z,100896.22
2023-02-22T16:39:27.247Z,100899.44
2023-02-22T16:41:58.829Z,100898.63
2023-02-22T16:44:30.419Z,100894.31
2023-02-22T16:47:01.973Z,100898.34
2023-02-22T16:49:33.747Z,100895.69
2023-02-22T16:52:06.593Z,100892.84
2023-02-22T16:54:38.188Z,100895.28
2023-02-22T16:57:12.753Z,100897.09
2023-02-22T16:59:44.338Z,100897.88
2023-02-22T17:02:15.984Z,100905.03
2023-02-22T17:04:49.475Z,100899.09
2023-02-22T17:07:23.482Z,100903.78
2023-02-22T17:09:58.409Z,100899.25
2023-02-22T17:12:30.014Z,100900.47
2023-02-22T17:15:03.866Z,100897.59
2023-02-22T17:17:35.803Z,100895.53
2023-02-22T17:20:11.547Z,100895.53
2023-02-22T17:22:43.353Z,100894.66
2023-02-22T17:25:15.829Z,100903.63
2023-02-22T17:27:47.690Z,100892.59
2023-02-22T17:30:23.007Z,100890.16
2023-02-22T17:33:03.841Z,100890.72
2023-02-22T17:35:36.960Z,100895.00
2023-02-22T17:38:09.934Z,100893.75
2023-02-22T17:40:41.465Z,100889.84
2023-02-22T17:43:13.406Z,100890.88
2023-02-22T17:45:46.024Z,100894.94
2023-02-22T17:48:17.887Z,100887.78
2023-02-22T17:50:49.581Z,100886.72
2023-02-22T17:53:22.782Z,100889.31
2023-02-22T17:55:54.370Z,100882.56
2023-02-22T17:58:30.869Z,100881.31
2023-02-22T18:01:02.431Z,100881.53
2023-02-22T18:03:34.250Z,100884.81
2023-02-22T18:06:05.963Z,100889.88
2023-02-22T18:08:39.330Z,100888.44
2023-02-22T18:11:10.831Z,100886.97
2023-02-22T18:13:42.461Z,100882.44
2023-02-22T18:16:16.169Z,100881.00
2023-02-22T18:18:49.456Z,100882.66
2023-02-22T18:21:21.263Z,100880.00
2023-02-22T18:23:54.161Z,100879.41
2023-02-22T18:26:26.057Z,100878.16
2023-02-22T18:28:57.699Z,100875.44
2023-02-22T18:31:29.342Z,100885.59
2023-02-22T18:34:01.267Z,100878.03
2023-02-22T18:36:32.754Z,100876.59
2023-02-22T18:39:05.431Z,100881.47
2023-02-22T18:41:36.975Z,100875.34
2023-02-22T18:44:11.578Z,100880.66
2023-02-22T18:46:45.901Z,100880.84
2023-02-22T18:49:17.397Z,100883.88
2023-02-22T18:51:48.872Z,100876.13
2023-02-22T18:54:20.471Z,100885.91
2023-02-22T18:56:51.964Z,100879.34
2023-02-22T18:59:23.437Z,100875.25
2023-02-22T19:01:54.921Z,100874.81
2023-02-22T19:04:26.560Z,100869.06
2023-02-22T19:06:58.051Z,100869.81
2023-02-22T19:09:29.535Z,100867.34
2023-02-22T19:12:01.086Z,100865.09
2023-02-22T19:14:32.661Z,100873.03
2023-02-22T19:17:07.404Z,100859.72
2023-02-22T19:19:38.980Z,100865.22
2023-02-22T19:22:10.464Z,100867.06
2023-02-22T19:24:41.985Z,100871.34
2023-02-22T19:27:13.466Z,100875.19
2023-02-22T19:29:44.954Z,100875.56
2023-02-22T19:32:17.555Z,100872.91
2023-02-22T19:34:50.456Z,100876.13
2023-02-22T19:37:22.639Z,100878.16
2023-02-22T19:39:54.218Z,100877.72
2023-02-22T19:42:26.005Z,100870.16
2023-02-22T19:44:58.266Z,100873.97
2023-02-22T19:47:29.804Z,100873.72
2023-02-22T19:50:01.691Z,100872.25
2023-02-22T19:52:33.179Z,100870.81
2023-02-22T19:55:06.506Z,100873.00
2023-02-22T19:57:38.637Z,100873.19
2023-02-22T20:00:11.643Z,100873.75
2023-02-22T20:02:43.320Z,100877.41
2023-02-22T20:05:16.775Z,100871.75
2023-02-22T20:07:48.510Z,100865.00
2023-02-22T20:10:20.301Z,100865.00
2023-02-22T20:12:51.835Z,100870.28
2023-02-22T20:15:23.978Z,100864.81
2023-02-22T20:17:55.556Z,100861.72
2023-02-22T20:20:28.938Z,100869.91
2023-02-22T20:23:01.807Z,100862.34
2023-02-22T20:25:35.632Z,100863.81
2023-02-22T20:28:07.847Z,100869.91
2023-02-22T20:30:39.690Z,100870.28
2023-02-22T20:33:13.542Z,100867.00
2023-02-22T20:35:46.543Z,100857.19
2023-02-22T20:38:19.263Z,100862.84
2023-02-22T20:40:51.109Z,100863.41
2023-02-22T20:43:23.145Z,100864.03
2023-02-22T20:45:56.096Z,100858.47
2023-02-22T20:48:27.578Z,100860.63
2023-02-22T20:50:59.447Z,100853.06
2023-02-22T20:53:30.949Z,100862.56
2023-02-22T20:56:02.869Z,100854.00
2023-02-22T20:58:34.745Z,100857.91
2023-02-22T21:01:06.610Z,100854.06
2023-02-22T21:03:38.098Z,100854.69
2023-02-22T21:06:09.827Z,100860.47
2023-02-22T21:08:41.727Z,100861.09
2023-02-22T21:11:13.573Z,100862.19
2023-02-22T21:13:45.105Z,100866.47
2023-02-22T21:16:16.955Z,100861.94
2023-02-22T21:18:48.463Z,100865.94
2023-02-22T21:21:20.178Z,100865.31
2023-02-22T21:23:51.955Z,100865.13
2023-02-22T21:26:23.653Z,100852.84
2023-02-22T21:28:55.531Z,100855.59
2023-02-22T21:31:27.157Z,100855.59
2023-02-22T21:33:58.984Z,100844.53
2023-02-22T21:36:31.837Z,100851.56
2023-02-22T21:39:09.185Z,100846.81
2023-02-22T21:41:41.049Z,100852.91
2023-02-22T21:44:12.842Z,100848.00
2023-02-22T21:49:23.303Z,100850.28
2023-02-22T21:51:54.839Z,100843.00
2023-02-22T21:54:27.955Z,100842.16
2023-02-22T21:56:59.843Z,100838.91
2023-02-22T21:59:31.636Z,100833.97
2023-02-22T22:02:03.705Z,100839.63
2023-02-22T22:04:35.191Z,100834.34
2023-02-22T22:07:06.693Z,100833.03
2023-02-22T22:09:41.591Z,100826.47
2023-02-22T22:12:14.120Z,100828.56
2023-02-22T22:14:45.974Z,100827.28
2023-02-22T22:17:17.528Z,100828.84
2023-02-22T22:19:49.266Z,100825.38
2023-02-22T22:22:20.771Z,100820.91
2023-02-22T22:24:54.152Z,100827.19
2023-02-22T22:27:25.670Z,100824.38
2023-02-22T22:29:59.768Z,100822.28
2023-02-22T22:32:31.292Z,100812.44
2023-02-22T22:35:06.190Z,100814.44
2023-02-22T22:37:39.350Z,100816.63
2023-02-22T22:40:15.863Z,100818.25
2023-02-22T22:42:48.010Z,100807.88
2023-02-22T22:45:19.664Z,100814.16
2023-02-22T22:47:52.163Z,100809.88
2023-02-22T22:50:26.465Z,100817.34
2023-02-22T22:52:58.226Z,100808.59
2023-02-22T22:55:29.888Z,100811.13
2023-02-22T22:58:01.948Z,100804.66
2023-02-22T23:00:37.804Z,100794.81
2023-02-22T23:03:09.536Z,100803.38
2023-02-22T23:05:45.894Z,100800.28
2023-02-22T23:08:18.413Z,100803.91
2023-02-22T23:10:50.301Z,100789.88
2023-02-22T23:13:21.895Z,100797.00
2023-02-22T23:15:55.045Z,100792.88
2023-02-22T23:18:26.538Z,100790.44
2023-02-22T23:20:58.377Z,100787.50
2023-02-22T23:23:29.986Z,100797.06
2023-02-22T23:26:01.840Z,100801.53
2023-02-22T23:28:33.319Z,100790.97
2023-02-22T23:31:05.205Z,100793.97
2023-02-22T23:33:38.257Z,100785.69
2023-02-22T23:36:11.439Z,100784.22
2023-02-22T23:38:42.941Z,100795.97
2023-02-22T23:41:16.724Z,100789.88
2023-02-22T23:43:48.433Z,100793.88
2023-02-22T23:46:20.243Z,100793.50
2023-02-22T23:48:51.839Z,100794.69
2023-02-22T23:51:26.235Z,100789.59
2023-02-22T23:53:57.733Z,100792.22
2023-02-22T23:56:30.787Z,100787.13
2023-02-22T23:59:08.075Z,100795.41
